sensor_id;sensor_type;location;lat;lon;timestamp;temperature;humidity
22235;DHT22;11286;45.596;5.284;2023-01-24T00:00:06;3.50;99.90
22235;DHT22;11286;45.596;5.284;2023-01-24T00:02:32;3.40;99.90
22235;DHT22;11286;45.596;5.284;2023-01-24T00:04:57;3.50;99.90
22235;DHT22;11286;45.596;5.284;2023-01-24T00:07:23;3.50;99.90
22235;DHT22;11286;45.596;5.284;2023-01-24T00:09:49;3.40;99.90
22235;DHT22;11286;45.596;5.284;2023-01-24T00:12:14;3.30;99.90
22235;DHT22;11286;45.596;5.284;2023-01-24T00:14:40;3.70;99.90
22235;DHT22;11286;45.596;5.284;2023-01-24T00:17:05;3.60;99.90
22235;DHT22;11286;45.596;5.284;2023-01-24T00:19:33;3.40;99.90
22235;DHT22;11286;45.596;5.284;2023-01-24T00:22:00;3.50;99.90
22235;DHT22;11286;45.596;5.284;2023-01-24T00:24:25;3.70;99.90
22235;DHT22;11286;45.596;5.284;2023-01-24T00:26:51;3.30;99.90
22235;DHT22;11286;45.596;5.284;2023-01-24T00:29:17;3.40;99.90
22235;DHT22;11286;45.596;5.284;2023-01-24T00:31:43;3.70;99.90
22235;DHT22;11286;45.596;5.284;2023-01-24T00:34:08;3.50;99.90
22235;DHT22;11286;45.596;5.284;2023-01-24T00:36:34;3.80;99.90
22235;DHT22;11286;45.596;5.284;2023-01-24T00:39:00;3.50;99.90
22235;DHT22;11286;45.596;5.284;2023-01-24T00:41:25;3.50;99.90
22235;DHT22;11286;45.596;5.284;2023-01-24T00:43:51;3.60;99.90
22235;DHT22;11286;45.596;5.284;2023-01-24T00:46:16;3.80;99.90
22235;DHT22;11286;45.596;5.284;2023-01-24T00:48:42;3.40;99.90
22235;DHT22;11286;45.596;5.284;2023-01-24T00:51:08;3.60;99.90
22235;DHT22;11286;45.596;5.284;2023-01-24T00:53:34;3.90;99.90
22235;DHT22;11286;45.596;5.284;2023-01-24T00:55:59;3.40;99.90
22235;DHT22;11286;45.596;5.284;2023-01-24T00:58:25;3.70;99.90
22235;DHT22;11286;45.596;5.284;2023-01-24T01:00:53;3.70;99.90
22235;DHT22;11286;45.596;5.284;2023-01-24T01:03:19;3.70;99.90
22235;DHT22;11286;45.596;5.284;2023-01-24T01:05:45;3.70;99.90
22235;DHT22;11286;45.596;5.284;2023-01-24T01:08:11;3.40;99.90
22235;DHT22;11286;45.596;5.284;2023-01-24T01:10:37;3.60;99.90
22235;DHT22;11286;45.596;5.284;2023-01-24T01:13:03;3.40;99.90
22235;DHT22;11286;45.596;5.284;2023-01-24T01:15:30;3.60;99.90
22235;DHT22;11286;45.596;5.284;2023-01-24T01:17:57;3.30;99.90
22235;DHT22;11286;45.596;5.284;2023-01-24T01:20:23;3.60;99.90
22235;DHT22;11286;45.596;5.284;2023-01-24T01:22:48;3.20;99.90
22235;DHT22;11286;45.596;5.284;2023-01-24T01:25:14;3.10;99.90
22235;DHT22;11286;45.596;5.284;2023-01-24T01:27:40;3.20;99.90
22235;DHT22;11286;45.596;5.284;2023-01-24T01:30:06;3.50;99.90
22235;DHT22;11286;45.596;5.284;2023-01-24T01:32:32;3.30;99.90
22235;DHT22;11286;45.596;5.284;2023-01-24T01:34:57;3.50;99.90
22235;DHT22;11286;45.596;5.284;2023-01-24T01:37:23;3.30;99.90
22235;DHT22;11286;45.596;5.284;2023-01-24T01:39:49;3.70;99.90
22235;DHT22;11286;45.596;5.284;2023-01-24T01:42:15;3.70;99.90
22235;DHT22;11286;45.596;5.284;2023-01-24T01:44:41;3.10;99.90
22235;DHT22;11286;45.596;5.284;2023-01-24T01:47:26;3.40;99.90
22235;DHT22;11286;45.596;5.284;2023-01-24T01:52:19;3.60;99.90
22235;DHT22;11286;45.596;5.284;2023-01-24T01:54:46;3.70;99.90
22235;DHT22;11286;45.596;5.284;2023-01-24T01:57:21;3.20;99.90
22235;DHT22;11286;45.596;5.284;2023-01-24T01:59:52;3.30;99.90
22235;DHT22;11286;45.596;5.284;2023-01-24T02:02:20;3.20;99.90
22235;DHT22;11286;45.596;5.284;2023-01-24T02:04:52;3.40;99.90
22235;DHT22;11286;45.596;5.284;2023-01-24T02:07:30;3.10;99.90
22235;DHT22;11286;45.596;5.284;2023-01-24T02:09:57;3.00;99.90
22235;DHT22;11286;45.596;5.284;2023-01-24T02:12:26;3.10;99.90
22235;DHT22;11286;45.596;5.284;2023-01-24T02:15:14;3.20;99.90
22235;DHT22;11286;45.596;5.284;2023-01-24T02:17:59;3.40;99.90
22235;DHT22;11286;45.596;5.284;2023-01-24T02:23:41;3.20;99.90
22235;DHT22;11286;45.596;5.284;2023-01-24T02:26:17;3.20;99.90
22235;DHT22;11286;45.596;5.284;2023-01-24T02:29:19;3.60;99.90
22235;DHT22;11286;45.596;5.284;2023-01-24T02:31:59;3.50;99.90
22235;DHT22;11286;45.596;5.284;2023-01-24T02:34:26;3.30;99.90
22235;DHT22;11286;45.596;5.284;2023-01-24T02:37:12;3.60;99.90
22235;DHT22;11286;45.596;5.284;2023-01-24T02:42:15;3.60;99.90
22235;DHT22;11286;45.596;5.284;2023-01-24T02:45:02;3.70;99.90
22235;DHT22;11286;45.596;5.284;2023-01-24T02:47:31;3.20;99.90
22235;DHT22;11286;45.596;5.284;2023-01-24T02:50:01;3.10;99.90
22235;DHT22;11286;45.596;5.284;2023-01-24T02:52:27;3.60;99.90
22235;DHT22;11286;45.596;5.284;2023-01-24T02:55:12;3.20;99.90
22235;DHT22;11286;45.596;5.284;2023-01-24T02:57:37;3.20;99.90
22235;DHT22;11286;45.596;5.284;2023-01-24T03:00:22;3.60;99.90
22235;DHT22;11286;45.596;5.284;2023-01-24T03:02:48;3.10;99.90
22235;DHT22;11286;45.596;5.284;2023-01-24T03:05:14;3.50;99.90
22235;DHT22;11286;45.596;5.284;2023-01-24T03:07:39;3.10;99.90
22235;DHT22;11286;45.596;5.284;2023-01-24T03:10:11;3.10;99.90
22235;DHT22;11286;45.596;5.284;2023-01-24T03:12:37;3.50;99.90
22235;DHT22;11286;45.596;5.284;2023-01-24T03:15:21;3.20;99.90
22235;DHT22;11286;45.596;5.284;2023-01-24T03:18:06;3.40;99.90
22235;DHT22;11286;45.596;5.284;2023-01-24T03:20:50;3.70;99.90
22235;DHT22;11286;45.596;5.284;2023-01-24T03:23:35;3.40;99.90
22235;DHT22;11286;45.596;5.284;2023-01-24T03:26:19;3.50;99.90
22235;DHT22;11286;45.596;5.284;2023-01-24T03:29:03;3.20;99.90
22235;DHT22;11286;45.596;5.284;2023-01-24T03:31:47;3.10;99.90
22235;DHT22;11286;45.596;5.284;2023-01-24T03:34:31;3.20;99.90
22235;DHT22;11286;45.596;5.284;2023-01-24T03:37:12;3.40;99.90
22235;DHT22;11286;45.596;5.284;2023-01-24T03:39:40;3.30;99.90
22235;DHT22;11286;45.596;5.284;2023-01-24T03:42:25;3.10;99.90
22235;DHT22;11286;45.596;5.284;2023-01-24T03:44:52;3.20;99.90
22235;DHT22;11286;45.596;5.284;2023-01-24T03:47:17;3.20;99.90
22235;DHT22;11286;45.596;5.284;2023-01-24T03:49:43;3.30;99.90
22235;DHT22;11286;45.596;5.284;2023-01-24T03:52:27;3.60;99.90
22235;DHT22;11286;45.596;5.284;2023-01-24T03:54:57;3.30;99.90
22235;DHT22;11286;45.596;5.284;2023-01-24T03:57:24;3.20;99.90
22235;DHT22;11286;45.596;5.284;2023-01-24T03:59:49;3.20;99.90
22235;DHT22;11286;45.596;5.284;2023-01-24T04:02:16;3.70;99.90
22235;DHT22;11286;45.596;5.284;2023-01-24T04:04:42;3.40;99.90
22235;DHT22;11286;45.596;5.284;2023-01-24T04:07:26;3.20;99.90
22235;DHT22;11286;45.596;5.284;2023-01-24T04:09:52;3.40;99.90
22235;DHT22;11286;45.596;5.284;2023-01-24T04:12:18;3.50;99.90
22235;DHT22;11286;45.596;5.284;2023-01-24T04:14:43;3.50;99.90
22235;DHT22;11286;45.596;5.284;2023-01-24T04:17:09;3.20;99.90
22235;DHT22;11286;45.596;5.284;2023-01-24T04:19:35;3.40;99.90
22235;DHT22;11286;45.596;5.284;2023-01-24T04:22:01;3.00;99.90
22235;DHT22;11286;45.596;5.284;2023-01-24T04:24:26;3.20;99.90
22235;DHT22;11286;45.596;5.284;2023-01-24T04:26:52;3.40;99.90
22235;DHT22;11286;45.596;5.284;2023-01-24T04:29:17;3.70;99.90
22235;DHT22;11286;45.596;5.284;2023-01-24T04:31:43;3.40;99.90
22235;DHT22;11286;45.596;5.284;2023-01-24T04:34:09;3.30;99.90
22235;DHT22;11286;45.596;5.284;2023-01-24T04:36:34;3.30;99.90
22235;DHT22;11286;45.596;5.284;2023-01-24T04:39:00;3.50;99.90
22235;DHT22;11286;45.596;5.284;2023-01-24T04:41:26;3.40;99.90
22235;DHT22;11286;45.596;5.284;2023-01-24T04:43:51;3.40;99.90
22235;DHT22;11286;45.596;5.284;2023-01-24T04:46:17;3.30;99.90
22235;DHT22;11286;45.596;5.284;2023-01-24T04:48:43;3.70;99.90
22235;DHT22;11286;45.596;5.284;2023-01-24T04:51:08;3.30;99.90
22235;DHT22;11286;45.596;5.284;2023-01-24T04:53:40;3.50;99.90
22235;DHT22;11286;45.596;5.284;2023-01-24T04:56:07;3.60;99.90
22235;DHT22;11286;45.596;5.284;2023-01-24T04:58:34;3.50;99.90
22235;DHT22;11286;45.596;5.284;2023-01-24T05:00:59;3.60;99.90
22235;DHT22;11286;45.596;5.284;2023-01-24T05:03:25;3.20;99.90
22235;DHT22;11286;45.596;5.284;2023-01-24T05:05:52;3.50;99.90
22235;DHT22;11286;45.596;5.284;2023-01-24T05:08:18;3.40;99.90
22235;DHT22;11286;45.596;5.284;2023-01-24T05:10:43;3.10;99.90
22235;DHT22;11286;45.596;5.284;2023-01-24T05:13:10;3.50;99.90
22235;DHT22;11286;45.596;5.284;2023-01-24T05:15:35;3.30;99.90
22235;DHT22;11286;45.596;5.284;2023-01-24T05:18:01;3.50;99.90
22235;DHT22;11286;45.596;5.284;2023-01-24T05:20:27;3.10;99.90
22235;DHT22;11286;45.596;5.284;2023-01-24T05:22:56;3.60;99.90
22235;DHT22;11286;45.596;5.284;2023-01-24T05:25:21;3.10;99.90
22235;DHT22;11286;45.596;5.284;2023-01-24T05:27:47;3.50;99.90
22235;DHT22;11286;45.596;5.284;2023-01-24T05:30:13;3.50;99.90
22235;DHT22;11286;45.596;5.284;2023-01-24T05:32:39;3.20;99.90
22235;DHT22;11286;45.596;5.284;2023-01-24T05:35:05;3.30;99.90
22235;DHT22;11286;45.596;5.284;2023-01-24T05:37:31;3.30;99.90
22235;DHT22;11286;45.596;5.284;2023-01-24T05:39:57;3.60;99.90
22235;DHT22;11286;45.596;5.284;2023-01-24T05:42:22;3.50;99.90
22235;DHT22;11286;45.596;5.284;2023-01-24T05:44:48;3.20;99.90
22235;DHT22;11286;45.596;5.284;2023-01-24T05:47:14;3.50;99.90
22235;DHT22;11286;45.596;5.284;2023-01-24T05:49:40;3.50;99.90
22235;DHT22;11286;45.596;5.284;2023-01-24T05:52:05;3.70;99.90
22235;DHT22;11286;45.596;5.284;2023-01-24T05:54:31;3.70;99.90
22235;DHT22;11286;45.596;5.284;2023-01-24T05:56:56;3.40;99.90
22235;DHT22;11286;45.596;5.284;2023-01-24T05:59:22;3.30;99.90
22235;DHT22;11286;45.596;5.284;2023-01-24T06:01:48;3.50;99.90
22235;DHT22;11286;45.596;5.284;2023-01-24T06:04:13;3.60;99.90
22235;DHT22;11286;45.596;5.284;2023-01-24T06:06:39;3.60;99.90
22235;DHT22;11286;45.596;5.284;2023-01-24T06:09:04;3.30;99.90
22235;DHT22;11286;45.596;5.284;2023-01-24T06:11:30;3.30;99.90
22235;DHT22;11286;45.596;5.284;2023-01-24T06:13:58;3.00;99.90
22235;DHT22;11286;45.596;5.284;2023-01-24T06:16:25;3.00;99.90
22235;DHT22;11286;45.596;5.284;2023-01-24T06:18:52;3.10;99.90
22235;DHT22;11286;45.596;5.284;2023-01-24T06:26:44;3.20;99.90
22235;DHT22;11286;45.596;5.284;2023-01-24T06:29:13;3.20;99.90
22235;DHT22;11286;45.596;5.284;2023-01-24T06:39:57;3.30;99.90
22235;DHT22;11286;45.596;5.284;2023-01-24T06:42:24;3.30;99.90
22235;DHT22;11286;45.596;5.284;2023-01-24T06:44:49;3.30;99.90
22235;DHT22;11286;45.596;5.284;2023-01-24T06:47:15;3.50;99.90
22235;DHT22;11286;45.596;5.284;2023-01-24T06:49:42;3.30;99.90
22235;DHT22;11286;45.596;5.284;2023-01-24T06:52:08;3.60;99.90
22235;DHT22;11286;45.596;5.284;2023-01-24T06:54:35;3.70;99.90
22235;DHT22;11286;45.596;5.284;2023-01-24T06:57:01;3.70;99.90
22235;DHT22;11286;45.596;5.284;2023-01-24T06:59:27;3.30;99.90
22235;DHT22;11286;45.596;5.284;2023-01-24T07:01:53;3.40;99.90
22235;DHT22;11286;45.596;5.284;2023-01-24T07:04:19;3.80;99.90
22235;DHT22;11286;45.596;5.284;2023-01-24T07:06:44;3.70;99.90
22235;DHT22;11286;45.596;5.284;2023-01-24T07:09:10;3.40;99.90
22235;DHT22;11286;45.596;5.284;2023-01-24T07:11:36;3.30;99.90
22235;DHT22;11286;45.596;5.284;2023-01-24T07:14:02;3.70;99.90
22235;DHT22;11286;45.596;5.284;2023-01-24T07:16:28;3.40;99.90
22235;DHT22;11286;45.596;5.284;2023-01-24T07:18:54;3.80;99.90
22235;DHT22;11286;45.596;5.284;2023-01-24T07:21:20;3.50;99.90
22235;DHT22;11286;45.596;5.284;2023-01-24T07:23:46;3.80;99.90
22235;DHT22;11286;45.596;5.284;2023-01-24T07:26:13;3.70;99.90
22235;DHT22;11286;45.596;5.284;2023-01-24T07:28:39;3.80;99.90
22235;DHT22;11286;45.596;5.284;2023-01-24T07:31:06;4.20;99.90
22235;DHT22;11286;45.596;5.284;2023-01-24T07:33:32;3.80;99.90
22235;DHT22;11286;45.596;5.284;2023-01-24T07:35:57;3.50;99.90
22235;DHT22;11286;45.596;5.284;2023-01-24T07:38:23;3.60;99.90
22235;DHT22;11286;45.596;5.284;2023-01-24T07:40:49;3.80;99.90
22235;DHT22;11286;45.596;5.284;2023-01-24T07:43:14;3.80;99.90
22235;DHT22;11286;45.596;5.284;2023-01-24T07:45:40;3.90;99.90
22235;DHT22;11286;45.596;5.284;2023-01-24T07:48:09;4.10;99.90
22235;DHT22;11286;45.596;5.284;2023-01-24T07:50:35;4.20;99.90
22235;DHT22;11286;45.596;5.284;2023-01-24T07:53:02;4.20;99.90
22235;DHT22;11286;45.596;5.284;2023-01-24T07:55:28;4.60;99.90
22235;DHT22;11286;45.596;5.284;2023-01-24T07:58:01;4.50;99.90
22235;DHT22;11286;45.596;5.284;2023-01-24T08:00:27;4.60;99.90
22235;DHT22;11286;45.596;5.284;2023-01-24T08:02:53;4.70;99.90
22235;DHT22;11286;45.596;5.284;2023-01-24T08:05:19;4.70;99.90
22235;DHT22;11286;45.596;5.284;2023-01-24T08:07:45;5.20;99.90
22235;DHT22;11286;45.596;5.284;2023-01-24T08:10:10;5.60;99.90
22235;DHT22;11286;45.596;5.284;2023-01-24T08:12:36;6.00;99.90
22235;DHT22;11286;45.596;5.284;2023-01-24T08:15:02;6.30;99.90
22235;DHT22;11286;45.596;5.284;2023-01-24T08:17:28;6.60;99.90
22235;DHT22;11286;45.596;5.284;2023-01-24T08:19:53;7.00;99.90
22235;DHT22;11286;45.596;5.284;2023-01-24T08:22:19;7.40;99.90
22235;DHT22;11286;45.596;5.284;2023-01-24T08:24:45;7.40;99.90
22235;DHT22;11286;45.596;5.284;2023-01-24T08:27:10;9.30;99.90
22235;DHT22;11286;45.596;5.284;2023-01-24T08:29:36;10.00;99.90
22235;DHT22;11286;45.596;5.284;2023-01-24T08:32:02;10.60;99.90
22235;DHT22;11286;45.596;5.284;2023-01-24T08:34:27;11.20;99.90
22235;DHT22;11286;45.596;5.284;2023-01-24T08:36:53;12.30;99.90
22235;DHT22;11286;45.596;5.284;2023-01-24T08:39:18;13.00;99.90
22235;DHT22;11286;45.596;5.284;2023-01-24T08:41:44;13.10;99.90
22235;DHT22;11286;45.596;5.284;2023-01-24T08:44:12;12.80;99.90
22235;DHT22;11286;45.596;5.284;2023-01-24T08:46:38;12.90;99.90
22235;DHT22;11286;45.596;5.284;2023-01-24T08:49:04;12.90;99.90
22235;DHT22;11286;45.596;5.284;2023-01-24T08:51:29;10.60;99.90
22235;DHT22;11286;45.596;5.284;2023-01-24T08:53:55;9.10;99.90
22235;DHT22;11286;45.596;5.284;2023-01-24T08:56:20;11.90;99.90
22235;DHT22;11286;45.596;5.284;2023-01-24T08:58:46;13.50;99.90
22235;DHT22;11286;45.596;5.284;2023-01-24T09:01:12;14.30;99.90
22235;DHT22;11286;45.596;5.284;2023-01-24T09:03:38;14.40;99.90
22235;DHT22;11286;45.596;5.284;2023-01-24T09:06:04;14.70;99.90
22235;DHT22;11286;45.596;5.284;2023-01-24T09:08:30;15.30;99.90
22235;DHT22;11286;45.596;5.284;2023-01-24T09:11:02;13.30;99.90
22235;DHT22;11286;45.596;5.284;2023-01-24T09:13:28;11.60;99.90
22235;DHT22;11286;45.596;5.284;2023-01-24T09:15:53;13.40;99.90
22235;DHT22;11286;45.596;5.284;2023-01-24T09:18:19;14.60;99.90
22235;DHT22;11286;45.596;5.284;2023-01-24T09:20:45;13.30;99.90
22235;DHT22;11286;45.596;5.284;2023-01-24T09:23:14;11.50;99.90
22235;DHT22;11286;45.596;5.284;2023-01-24T09:25:49;12.30;99.90
22235;DHT22;11286;45.596;5.284;2023-01-24T09:28:16;13.50;99.90
22235;DHT22;11286;45.596;5.284;2023-01-24T09:30:43;14.30;99.90
22235;DHT22;11286;45.596;5.284;2023-01-24T09:33:09;15.80;99.90
22235;DHT22;11286;45.596;5.284;2023-01-24T09:35:34;15.30;99.90
22235;DHT22;11286;45.596;5.284;2023-01-24T09:38:00;17.10;99.90
22235;DHT22;11286;45.596;5.284;2023-01-24T09:40:29;17.40;99.90
22235;DHT22;11286;45.596;5.284;2023-01-24T09:43:21;17.60;99.90
22235;DHT22;11286;45.596;5.284;2023-01-24T09:45:57;18.00;99.90
22235;DHT22;11286;45.596;5.284;2023-01-24T09:48:34;17.80;99.90
22235;DHT22;11286;45.596;5.284;2023-01-24T09:51:21;16.10;99.90
22235;DHT22;11286;45.596;5.284;2023-01-24T09:53:53;14.20;99.90
22235;DHT22;11286;45.596;5.284;2023-01-24T09:56:36;11.80;99.90
22235;DHT22;11286;45.596;5.284;2023-01-24T09:59:16;10.90;99.90
22235;DHT22;11286;45.596;5.284;2023-01-24T10:01:47;10.60;99.90
22235;DHT22;11286;45.596;5.284;2023-01-24T10:04:21;12.90;99.90
22235;DHT22;11286;45.596;5.284;2023-01-24T10:12:42;14.70;99.90
22235;DHT22;11286;45.596;5.284;2023-01-24T10:21:06;10.70;99.90
22235;DHT22;11286;45.596;5.284;2023-01-24T10:23:39;10.10;99.90
22235;DHT22;11286;45.596;5.284;2023-01-24T10:26:22;9.60;99.90
22235;DHT22;11286;45.596;5.284;2023-01-24T10:28:55;9.30;99.90
22235;DHT22;11286;45.596;5.284;2023-01-24T10:31:30;9.40;99.90
22235;DHT22;11286;45.596;5.284;2023-01-24T10:37:15;9.80;99.90
22235;DHT22;11286;45.596;5.284;2023-01-24T10:39:43;10.00;99.90
22235;DHT22;11286;45.596;5.284;2023-01-24T10:44:43;9.80;99.90
22235;DHT22;11286;45.596;5.284;2023-01-24T10:47:36;9.70;99.90
22235;DHT22;11286;45.596;5.284;2023-01-24T10:50:10;10.20;99.90
22235;DHT22;11286;45.596;5.284;2023-01-24T10:52:36;10.50;99.90
22235;DHT22;11286;45.596;5.284;2023-01-24T10:55:04;9.70;99.90
22235;DHT22;11286;45.596;5.284;2023-01-24T10:57:51;9.70;99.90
22235;DHT22;11286;45.596;5.284;2023-01-24T11:00:34;9.20;99.90
22235;DHT22;11286;45.596;5.284;2023-01-24T11:03:03;9.00;99.90
22235;DHT22;11286;45.596;5.284;2023-01-24T11:05:46;8.90;99.90
22235;DHT22;11286;45.596;5.284;2023-01-24T11:08:37;8.40;99.90
22235;DHT22;11286;45.596;5.284;2023-01-24T11:11:17;8.30;99.90
22235;DHT22;11286;45.596;5.284;2023-01-24T11:13:43;8.30;99.90
22235;DHT22;11286;45.596;5.284;2023-01-24T11:18:59;7.90;99.90
22235;DHT22;11286;45.596;5.284;2023-01-24T11:21:27;7.70;99.90
22235;DHT22;11286;45.596;5.284;2023-01-24T11:24:19;7.30;99.90
22235;DHT22;11286;45.596;5.284;2023-01-24T11:27:13;7.20;99.90
22235;DHT22;11286;45.596;5.284;2023-01-24T11:29:39;7.20;99.90
22235;DHT22;11286;45.596;5.284;2023-01-24T11:35:07;7.40;99.90
22235;DHT22;11286;45.596;5.284;2023-01-24T11:38:00;7.70;99.90
22235;DHT22;11286;45.596;5.284;2023-01-24T11:40:39;7.90;99.90
22235;DHT22;11286;45.596;5.284;2023-01-24T11:54:26;7.40;99.90
22235;DHT22;11286;45.596;5.284;2023-01-24T11:57:13;7.30;99.90
22235;DHT22;11286;45.596;5.284;2023-01-24T12:12:46;6.90;99.90
22235;DHT22;11286;45.596;5.284;2023-01-24T12:15:29;6.80;99.90
22235;DHT22;11286;45.596;5.284;2023-01-24T12:21:09;6.70;99.90
22235;DHT22;11286;45.596;5.284;2023-01-24T12:23:49;6.80;99.90
22235;DHT22;11286;45.596;5.284;2023-01-24T12:26:27;6.90;99.90
22235;DHT22;11286;45.596;5.284;2023-01-24T12:29:07;7.00;99.90
22235;DHT22;11286;45.596;5.284;2023-01-24T12:37:38;7.00;99.90
22235;DHT22;11286;45.596;5.284;2023-01-24T12:40:07;6.90;99.90
22235;DHT22;11286;45.596;5.284;2023-01-24T12:50:57;7.10;99.90
22235;DHT22;11286;45.596;5.284;2023-01-24T12:54:25;6.80;99.90
22235;DHT22;11286;45.596;5.284;2023-01-24T12:59:10;6.80;99.90
22235;DHT22;11286;45.596;5.284;2023-01-24T13:01:40;6.80;99.90
22235;DHT22;11286;45.596;5.284;2023-01-24T13:04:41;7.10;99.90
22235;DHT22;11286;45.596;5.284;2023-01-24T13:07:31;7.00;99.90
22235;DHT22;11286;45.596;5.284;2023-01-24T13:10:05;7.70;99.90
22235;DHT22;11286;45.596;5.284;2023-01-24T13:12:31;7.70;99.90
22235;DHT22;11286;45.596;5.284;2023-01-24T13:15:21;7.80;99.90
22235;DHT22;11286;45.596;5.284;2023-01-24T13:23:40;7.30;99.90
22235;DHT22;11286;45.596;5.284;2023-01-24T13:34:21;7.10;99.90
22235;DHT22;11286;45.596;5.284;2023-01-24T13:36:49;7.00;99.90
22235;DHT22;11286;45.596;5.284;2023-01-24T13:39:42;7.10;99.90
22235;DHT22;11286;45.596;5.284;2023-01-24T13:42:40;7.20;99.90
22235;DHT22;11286;45.596;5.284;2023-01-24T13:47:55;7.30;99.90
22235;DHT22;11286;45.596;5.284;2023-01-24T13:50:23;7.20;99.90
22235;DHT22;11286;45.596;5.284;2023-01-24T13:57:46;7.20;99.90
22235;DHT22;11286;45.596;5.284;2023-01-24T14:08:13;7.40;99.90
22235;DHT22;11286;45.596;5.284;2023-01-24T14:18:59;7.40;99.90
22235;DHT22;11286;45.596;5.284;2023-01-24T14:21:44;7.10;99.90
22235;DHT22;11286;45.596;5.284;2023-01-24T14:27:17;7.40;99.90
22235;DHT22;11286;45.596;5.284;2023-01-24T14:29:46;7.30;99.90
22235;DHT22;11286;45.596;5.284;2023-01-24T14:32:33;7.40;99.90
22235;DHT22;11286;45.596;5.284;2023-01-24T14:35:28;7.40;99.90
22235;DHT22;11286;45.596;5.284;2023-01-24T14:38:11;7.50;99.90
22235;DHT22;11286;45.596;5.284;2023-01-24T14:40:39;7.60;99.90
22235;DHT22;11286;45.596;5.284;2023-01-24T14:43:06;7.50;99.90
22235;DHT22;11286;45.596;5.284;2023-01-24T14:45:33;7.10;99.90
22235;DHT22;11286;45.596;5.284;2023-01-24T14:48:00;7.00;99.90
22235;DHT22;11286;45.596;5.284;2023-01-24T14:50:32;7.10;99.90
22235;DHT22;11286;45.596;5.284;2023-01-24T14:55:43;7.10;99.90
22235;DHT22;11286;45.596;5.284;2023-01-24T15:00:47;6.70;99.90
22235;DHT22;11286;45.596;5.284;2023-01-24T15:03:19;6.80;99.90
22235;DHT22;11286;45.596;5.284;2023-01-24T15:06:14;6.80;99.90
22235;DHT22;11286;45.596;5.284;2023-01-24T15:08:41;6.60;99.90
22235;DHT22;11286;45.596;5.284;2023-01-24T15:11:17;6.70;99.90
22235;DHT22;11286;45.596;5.284;2023-01-24T15:13:47;6.70;99.90
22235;DHT22;11286;45.596;5.284;2023-01-24T15:16:19;6.80;99.90
22235;DHT22;11286;45.596;5.284;2023-01-24T15:18:50;6.70;99.90
22235;DHT22;11286;45.596;5.284;2023-01-24T15:21:38;6.60;99.90
22235;DHT22;11286;45.596;5.284;2023-01-24T15:24:06;6.50;99.90
22235;DHT22;11286;45.596;5.284;2023-01-24T15:26:40;6.50;99.90
22235;DHT22;11286;45.596;5.284;2023-01-24T15:29:42;6.40;99.90
22235;DHT22;11286;45.596;5.284;2023-01-24T15:35:12;6.30;99.90
22235;DHT22;11286;45.596;5.284;2023-01-24T15:37:38;6.20;99.90
22235;DHT22;11286;45.596;5.284;2023-01-24T15:40:04;6.10;99.90
22235;DHT22;11286;45.596;5.284;2023-01-24T15:42:37;6.20;99.90
22235;DHT22;11286;45.596;5.284;2023-01-24T15:45:21;6.10;99.90
22235;DHT22;11286;45.596;5.284;2023-01-24T15:48:06;6.40;99.90
22235;DHT22;11286;45.596;5.284;2023-01-24T15:50:31;6.20;99.90
22235;DHT22;11286;45.596;5.284;2023-01-24T15:53:23;6.30;99.90
22235;DHT22;11286;45.596;5.284;2023-01-24T15:55:52;6.50;99.90
22235;DHT22;11286;45.596;5.284;2023-01-24T15:58:18;6.60;99.90
22235;DHT22;11286;45.596;5.284;2023-01-24T16:00:55;6.50;99.90
22235;DHT22;11286;45.596;5.284;2023-01-24T16:03:21;6.40;99.90
22235;DHT22;11286;45.596;5.284;2023-01-24T16:05:46;6.40;99.90
22235;DHT22;11286;45.596;5.284;2023-01-24T16:08:12;6.30;99.90
22235;DHT22;11286;45.596;5.284;2023-01-24T16:10:38;6.20;99.90
22235;DHT22;11286;45.596;5.284;2023-01-24T16:13:05;6.20;99.90
22235;DHT22;11286;45.596;5.284;2023-01-24T16:15:30;6.40;99.90
22235;DHT22;11286;45.596;5.284;2023-01-24T16:17:56;6.20;99.90
22235;DHT22;11286;45.596;5.284;2023-01-24T16:20:24;6.10;99.90
22235;DHT22;11286;45.596;5.284;2023-01-24T16:22:52;6.40;99.90
22235;DHT22;11286;45.596;5.284;2023-01-24T16:25:19;6.40;99.90
22235;DHT22;11286;45.596;5.284;2023-01-24T16:27:46;6.20;99.90
22235;DHT22;11286;45.596;5.284;2023-01-24T16:30:20;6.20;99.90
22235;DHT22;11286;45.596;5.284;2023-01-24T16:32:46;6.20;99.90
22235;DHT22;11286;45.596;5.284;2023-01-24T16:35:12;6.30;99.90
22235;DHT22;11286;45.596;5.284;2023-01-24T16:37:38;6.30;99.90
22235;DHT22;11286;45.596;5.284;2023-01-24T16:40:04;6.20;99.90
22235;DHT22;11286;45.596;5.284;2023-01-24T16:42:30;6.30;99.90
22235;DHT22;11286;45.596;5.284;2023-01-24T16:44:58;6.20;99.90
22235;DHT22;11286;45.596;5.284;2023-01-24T16:47:25;6.30;99.90
22235;DHT22;11286;45.596;5.284;2023-01-24T16:49:52;6.40;99.90
22235;DHT22;11286;45.596;5.284;2023-01-24T16:52:18;6.20;99.90
22235;DHT22;11286;45.596;5.284;2023-01-24T16:54:44;6.20;99.90
22235;DHT22;11286;45.596;5.284;2023-01-24T16:57:10;6.50;99.90
22235;DHT22;11286;45.596;5.284;2023-01-24T16:59:35;6.40;99.90
22235;DHT22;11286;45.596;5.284;2023-01-24T17:02:01;6.20;99.90
22235;DHT22;11286;45.596;5.284;2023-01-24T17:04:26;6.50;99.90
22235;DHT22;11286;45.596;5.284;2023-01-24T17:06:53;6.20;99.90
22235;DHT22;11286;45.596;5.284;2023-01-24T17:09:20;6.20;99.90
22235;DHT22;11286;45.596;5.284;2023-01-24T17:11:45;6.20;99.90
22235;DHT22;11286;45.596;5.284;2023-01-24T17:14:11;6.10;99.90
22235;DHT22;11286;45.596;5.284;2023-01-24T17:16:36;6.10;99.90
22235;DHT22;11286;45.596;5.284;2023-01-24T17:19:02;6.00;99.90
22235;DHT22;11286;45.596;5.284;2023-01-24T17:21:28;6.00;99.90
22235;DHT22;11286;45.596;5.284;2023-01-24T17:23:54;6.10;99.90
22235;DHT22;11286;45.596;5.284;2023-01-24T17:26:19;6.10;99.90
22235;DHT22;11286;45.596;5.284;2023-01-24T17:28:46;6.20;99.90
22235;DHT22;11286;45.596;5.284;2023-01-24T17:31:14;6.10;99.90
22235;DHT22;11286;45.596;5.284;2023-01-24T17:33:40;6.00;99.90
22235;DHT22;11286;45.596;5.284;2023-01-24T17:36:07;6.00;99.90
22235;DHT22;11286;45.596;5.284;2023-01-24T17:38:34;6.10;99.90
22235;DHT22;11286;45.596;5.284;2023-01-24T17:41:00;6.00;99.90
22235;DHT22;11286;45.596;5.284;2023-01-24T17:43:27;6.30;99.90
22235;DHT22;11286;45.596;5.284;2023-01-24T17:45:55;6.10;99.90
22235;DHT22;11286;45.596;5.284;2023-01-24T17:48:21;6.00;99.90
22235;DHT22;11286;45.596;5.284;2023-01-24T17:50:47;5.90;99.90
22235;DHT22;11286;45.596;5.284;2023-01-24T17:53:14;5.80;99.90
22235;DHT22;11286;45.596;5.284;2023-01-24T17:55:40;5.80;99.90
22235;DHT22;11286;45.596;5.284;2023-01-24T17:58:05;5.80;99.90
22235;DHT22;11286;45.596;5.284;2023-01-24T18:00:31;5.80;99.90
22235;DHT22;11286;45.596;5.284;2023-01-24T18:02:57;5.70;99.90
22235;DHT22;11286;45.596;5.284;2023-01-24T18:05:23;5.80;99.90
22235;DHT22;11286;45.596;5.284;2023-01-24T18:07:49;5.80;99.90
22235;DHT22;11286;45.596;5.284;2023-01-24T18:10:15;5.80;99.90
22235;DHT22;11286;45.596;5.284;2023-01-24T18:12:41;5.80;99.90
22235;DHT22;11286;45.596;5.284;2023-01-24T18:15:07;5.70;99.90
22235;DHT22;11286;45.596;5.284;2023-01-24T18:17:36;5.80;99.90
22235;DHT22;11286;45.596;5.284;2023-01-24T18:20:02;5.80;99.90